Nearby METAR Reports

 

CYOW - Ottawa Intl, Ontario, Canada
Distance from station: N 33km
Updated: Wed, 14-Nov-2018 11:00pm EST
Clear
Clear
 Wind from NW
Wind: NW 7 km/h
Temperature: -11°C
Wind Chill: -16°C
Dew Point: -15°C
Humidity: 73%
Barometer: 30.58 inHg , 1035.6 hPa
Clouds: Clear
Visibility: 24 km
2018/11/15 04:00 CYOW 150400Z 32004KT 15SM SKC M11/M15 A3058 RMK SLP366
CYGK - Kingston Arpt, Ontario, Canada
Distance from station: SW 117km
Updated: Wed, 14-Nov-2018 11:00pm EST
Mostly cloudy
Mostly cloudy
 Wind from NE
Wind: NE 17 km/h
Temperature: -8°C
Wind Chill: -14°C
Dew Point: -14°C
Humidity: 62%
Barometer: 30.59 inHg , 1035.9 hPa
Clouds: Mostly cloudy
Visibility: 24 km
Cloud details: Mostly cloudy 7620 m
2018/11/15 04:00 CYGK 150400Z 05009KT 15SM BKN250 M08/M14 A3059 RMK CI6 LAST STFD OBS/NEXT 151100 UTC SLP368
KMSS - Massena, New York, USA
Distance from station: E 62km
Updated: Wed, 14-Nov-2018 11:53pm EST
Clear
Clear
 Wind from calm
Wind: Calm
Temperature: -12°C
Dew Point: -14°C
Humidity: 85%
Barometer: 30.63 inHg , 1037.3 hPa
Clouds: Clear
Visibility: 16 km
2018/11/15 04:53 KMSS 150453Z AUTO 00000KT 10SM CLR M12/M14 A3063 RMK AO2 SLP380 T11221139 410501128